Time;durP1;ratioP1;P1;durP2;ratioP2;P2;SDS_P1;SDS_P2;PMS_P1;PMS_P2;Temp;Humidity;BMP_temperature;BMP_pressure;BME280_temperature;BME280_humidity;BME280_pressure;Samples;Min_cycle;Max_cycle;Signal;HPM_P1;HPM_P2
2023/12/24 00:00:30;;;;;;;1.10;1.00;;;6.10;99.90;;;;;;5039768;28;20425;-57
2023/12/24 00:02:56;;;;;;;1.00;1.00;;;6.10;99.90;;;;;;5037749;28;20620;-58
2023/12/24 00:05:21;;;;;;;0.90;0.90;;;6.10;99.90;;;;;;5034541;28;20184;-58
2023/12/24 00:07:47;;;;;;;1.20;0.70;;;6.10;99.90;;;;;;5031124;28;20222;-60
2023/12/24 00:10:13;;;;;;;2.20;0.90;;;6.20;99.90;;;;;;5038519;28;20187;-59
2023/12/24 00:12:38;;;;;;;2.73;1.10;;;6.20;99.90;;;;;;5036041;28;20246;-59
2023/12/24 00:15:05;;;;;;;0.80;0.80;;;6.20;99.90;;;;;;5036078;28;21170;-59
2023/12/24 00:17:31;;;;;;;0.90;0.90;;;6.20;99.90;;;;;;5045802;28;20198;-58
2023/12/24 00:19:58;;;;;;;0.90;0.90;;;6.20;99.90;;;;;;5042737;28;20534;-58
2023/12/24 00:22:23;;;;;;;1.07;0.80;;;6.20;99.90;;;;;;5035322;28;20211;-58
2023/12/24 00:24:49;;;;;;;1.03;0.90;;;6.20;99.90;;;;;;5034521;28;20493;-58
2023/12/24 00:27:15;;;;;;;0.90;0.90;;;6.20;99.90;;;;;;5035646;28;20667;-58
2023/12/24 00:29:40;;;;;;;1.10;1.00;;;6.20;99.90;;;;;;5032765;28;20457;-58
2023/12/24 00:32:06;;;;;;;1.00;0.90;;;6.20;99.90;;;;;;5038353;28;20210;-59
2023/12/24 00:34:32;;;;;;;1.20;0.87;;;6.20;99.90;;;;;;5032901;28;20698;-59
2023/12/24 00:36:57;;;;;;;3.03;1.30;;;6.20;99.90;;;;;;5035924;28;20299;-58
2023/12/24 00:39:23;;;;;;;0.80;0.80;;;6.10;99.90;;;;;;5034807;28;20649;-58
2023/12/24 00:41:48;;;;;;;0.90;0.90;;;6.20;99.90;;;;;;5040641;28;20179;-57
2023/12/24 00:44:14;;;;;;;0.80;0.80;;;6.10;99.90;;;;;;5032279;28;20230;-58
2023/12/24 00:46:39;;;;;;;0.87;0.87;;;6.10;99.90;;;;;;5036235;28;20209;-58
2023/12/24 00:49:05;;;;;;;0.90;0.90;;;6.10;99.90;;;;;;5034657;28;20672;-59
2023/12/24 00:51:31;;;;;;;4.30;1.00;;;6.10;99.90;;;;;;5034537;28;20230;-58
2023/12/24 00:53:56;;;;;;;1.93;0.90;;;6.10;99.90;;;;;;5036347;28;20195;-59
2023/12/24 00:56:22;;;;;;;1.80;0.80;;;6.10;99.90;;;;;;5035741;28;20204;-57
2023/12/24 00:58:47;;;;;;;0.90;0.90;;;6.20;99.90;;;;;;5036922;28;20587;-57
2023/12/24 01:01:13;;;;;;;0.80;0.80;;;6.20;99.90;;;;;;5034167;28;20782;-57
2023/12/24 01:03:38;;;;;;;1.13;1.00;;;6.10;99.90;;;;;;5033625;28;20186;-59
2023/12/24 01:06:04;;;;;;;1.07;1.07;;;6.10;99.90;;;;;;5031583;28;20187;-59
2023/12/24 01:08:30;;;;;;;0.80;0.80;;;6.10;99.90;;;;;;5035002;28;20191;-58
2023/12/24 01:10:56;;;;;;;0.80;0.80;;;6.10;99.90;;;;;;5033610;28;20993;-59
2023/12/24 01:13:22;;;;;;;1.40;1.00;;;6.10;99.90;;;;;;5029567;28;20429;-58
2023/12/24 01:15:48;;;;;;;1.10;0.80;;;6.10;99.90;;;;;;5043199;28;20183;-58
2023/12/24 01:18:14;;;;;;;1.67;0.97;;;6.10;99.90;;;;;;5031812;28;20194;-58
2023/12/24 01:20:41;;;;;;;0.80;0.80;;;6.20;99.90;;;;;;5033641;28;20437;-58
2023/12/24 01:23:07;;;;;;;0.90;0.90;;;6.20;99.90;;;;;;5033485;28;20965;-58
2023/12/24 01:25:33;;;;;;;0.93;0.93;;;6.20;99.90;;;;;;5025151;28;20438;-58
2023/12/24 01:27:59;;;;;;;0.90;0.90;;;6.10;99.90;;;;;;5030565;28;21165;-58
2023/12/24 01:30:24;;;;;;;0.80;0.80;;;6.10;99.90;;;;;;5029637;28;20434;-58
2023/12/24 01:32:50;;;;;;;1.10;1.00;;;6.10;99.90;;;;;;5026288;28;20269;-59
2023/12/24 01:35:16;;;;;;;0.80;0.80;;;6.10;99.90;;;;;;5031572;28;20171;-58
2023/12/24 01:37:41;;;;;;;1.10;1.00;;;6.10;99.90;;;;;;5034535;28;20211;-58
2023/12/24 01:40:08;;;;;;;0.77;0.77;;;6.10;99.90;;;;;;5026066;28;20686;-58
2023/12/24 01:42:33;;;;;;;0.60;0.60;;;6.20;99.90;;;;;;5031840;28;20183;-58
2023/12/24 01:44:59;;;;;;;0.97;0.97;;;6.20;99.90;;;;;;5028121;28;20829;-59
2023/12/24 01:47:25;;;;;;;0.90;0.90;;;6.20;99.90;;;;;;5033771;28;20215;-58
2023/12/24 01:49:51;;;;;;;1.20;0.80;;;6.20;99.90;;;;;;5023511;28;20182;-59
2023/12/24 01:52:18;;;;;;;1.10;1.00;;;6.20;99.90;;;;;;5023467;28;20465;-58
2023/12/24 01:54:46;;;;;;;1.37;0.90;;;6.20;99.90;;;;;;5033037;28;20543;-58
2023/12/24 01:57:12;;;;;;;1.10;1.00;;;6.20;99.90;;;;;;5030726;28;20454;-58
2023/12/24 01:59:39;;;;;;;0.70;0.70;;;6.20;99.90;;;;;;5030185;28;20422;-57
2023/12/24 02:02:05;;;;;;;1.93;0.90;;;6.20;99.90;;;;;;5032390;28;20438;-58
2023/12/24 02:04:32;;;;;;;0.87;0.87;;;6.20;99.90;;;;;;5022896;28;20863;-58
2023/12/24 02:06:57;;;;;;;0.80;0.80;;;6.20;99.90;;;;;;5039719;28;20226;-59
2023/12/24 02:09:23;;;;;;;0.80;0.80;;;6.20;99.90;;;;;;5034412;28;20426;-59
2023/12/24 02:11:50;;;;;;;1.87;0.80;;;6.20;99.90;;;;;;5031072;28;20709;-59
2023/12/24 02:14:16;;;;;;;1.43;0.97;;;6.20;99.90;;;;;;5031973;28;20262;-57
2023/12/24 02:16:43;;;;;;;0.80;0.80;;;6.30;99.90;;;;;;5025590;28;21149;-57
2023/12/24 02:19:16;;;;;;;1.00;1.00;;;6.30;99.90;;;;;;5027981;28;20673;-57
2023/12/24 02:21:42;;;;;;;1.40;0.93;;;6.30;99.90;;;;;;5036206;28;20433;-57
2023/12/24 02:24:08;;;;;;;1.20;1.10;;;6.30;99.90;;;;;;5031056;28;21096;-58
2023/12/24 02:26:39;;;;;;;11.50;7.23;;;6.30;99.90;;;;;;5031738;28;20210;-59
2023/12/24 02:29:14;;;;;;;1.00;1.00;;;6.30;99.90;;;;;;5028167;28;20184;-58
2023/12/24 02:31:45;;;;;;;0.90;0.90;;;6.30;99.90;;;;;;5026464;28;20561;-60
2023/12/24 02:34:16;;;;;;;0.80;0.80;;;6.30;99.90;;;;;;5025142;28;20426;-59
2023/12/24 02:36:48;;;;;;;0.80;0.80;;;6.30;99.90;;;;;;5033119;28;20499;-58
2023/12/24 02:39:13;;;;;;;0.90;0.90;;;6.30;99.90;;;;;;5031407;28;20429;-59
2023/12/24 02:41:39;;;;;;;0.70;0.70;;;6.30;99.90;;;;;;5033564;28;20848;-57
2023/12/24 02:44:04;;;;;;;0.80;0.80;;;6.30;99.90;;;;;;5026404;28;20249;-59
2023/12/24 02:46:30;;;;;;;1.20;1.10;;;6.30;99.90;;;;;;5022809;28;20694;-57
2023/12/24 02:48:55;;;;;;;0.83;0.83;;;6.30;99.90;;;;;;5028942;28;20172;-58
2023/12/24 02:51:21;;;;;;;1.07;0.70;;;6.30;99.90;;;;;;5023693;28;20692;-59
2023/12/24 02:53:47;;;;;;;0.90;0.90;;;6.30;99.90;;;;;;5025823;28;20233;-58
2023/12/24 02:56:13;;;;;;;0.80;0.80;;;6.30;99.90;;;;;;5023413;28;20241;-59
2023/12/24 02:58:38;;;;;;;0.90;0.90;;;6.30;99.90;;;;;;5036667;28;21004;-57
2023/12/24 03:01:04;;;;;;;0.80;0.80;;;6.30;99.90;;;;;;5023188;28;20449;-59
2023/12/24 03:03:29;;;;;;;1.10;1.00;;;6.30;99.90;;;;;;5033891;28;20182;-59
2023/12/24 03:05:55;;;;;;;0.80;0.80;;;6.30;99.90;;;;;;5028918;28;20225;-58
2023/12/24 03:08:21;;;;;;;0.70;0.70;;;6.30;99.90;;;;;;5038590;28;20194;-58
2023/12/24 03:10:46;;;;;;;1.20;1.10;;;6.30;99.90;;;;;;5037621;28;20180;-58
2023/12/24 03:13:12;;;;;;;0.80;0.80;;;6.40;99.90;;;;;;5043813;28;20190;-58
2023/12/24 03:15:38;;;;;;;0.73;0.73;;;6.30;99.90;;;;;;5042170;28;20175;-59
2023/12/24 03:18:04;;;;;;;0.80;0.80;;;6.30;99.90;;;;;;5038975;28;20465;-58
2023/12/24 03:20:29;;;;;;;0.90;0.90;;;6.30;99.90;;;;;;5033610;28;20586;-59
2023/12/24 03:22:55;;;;;;;0.80;0.80;;;6.30;99.90;;;;;;5038072;28;20698;-58
2023/12/24 03:25:21;;;;;;;0.83;0.80;;;6.30;99.90;;;;;;5028975;28;20194;-59
2023/12/24 03:27:46;;;;;;;0.90;0.90;;;6.30;99.90;;;;;;5033741;28;20211;-57
2023/12/24 03:30:12;;;;;;;0.90;0.90;;;6.30;99.90;;;;;;5033688;28;20187;-57
2023/12/24 03:32:37;;;;;;;0.80;0.80;;;6.30;99.90;;;;;;5032161;28;20222;-59
2023/12/24 03:35:03;;;;;;;0.80;0.80;;;6.30;99.90;;;;;;5040374;28;20589;-58
2023/12/24 03:37:29;;;;;;;0.80;0.80;;;6.40;99.90;;;;;;5034844;28;20242;-59
2023/12/24 03:39:54;;;;;;;0.97;0.97;;;6.40;99.90;;;;;;5038483;28;20417;-58
2023/12/24 03:42:20;;;;;;;0.90;0.90;;;6.40;99.90;;;;;;5040294;28;20244;-58
2023/12/24 03:44:46;;;;;;;2.30;1.10;;;6.40;99.90;;;;;;5034409;28;20596;-58
2023/12/24 03:47:11;;;;;;;1.10;0.97;;;6.30;99.90;;;;;;5038751;28;20203;-58
2023/12/24 03:49:37;;;;;;;1.00;1.00;;;6.30;99.90;;;;;;5034884;28;20206;-58
2023/12/24 03:52:02;;;;;;;2.73;1.00;;;6.40;99.90;;;;;;5035900;28;20215;-58
2023/12/24 03:54:28;;;;;;;1.30;1.20;;;6.40;99.90;;;;;;5042307;28;20167;-58
2023/12/24 03:56:54;;;;;;;1.20;1.00;;;6.40;99.90;;;;;;5027873;28;20199;-58
2023/12/24 03:59:19;;;;;;;0.90;0.90;;;6.40;99.90;;;;;;5029029;28;20172;-58
2023/12/24 04:01:45;;;;;;;2.10;1.13;;;6.40;99.90;;;;;;5033605;28;20863;-58
2023/12/24 04:04:11;;;;;;;1.70;1.00;;;6.40;99.90;;;;;;5037239;28;22022;-58
2023/12/24 04:06:36;;;;;;;1.87;0.90;;;6.40;99.90;;;;;;5038281;28;20211;-58
2023/12/24 04:09:02;;;;;;;1.20;1.10;;;6.40;99.90;;;;;;5036530;28;20187;-58
2023/12/24 04:11:28;;;;;;;1.47;1.37;;;6.40;99.90;;;;;;5047541;28;20207;-58
2023/12/24 04:13:53;;;;;;;1.30;1.20;;;6.40;99.90;;;;;;5041871;28;20441;-58
2023/12/24 04:16:19;;;;;;;1.40;1.30;;;6.40;99.90;;;;;;5035147;28;20801;-58
2023/12/24 04:18:45;;;;;;;1.10;1.00;;;6.40;99.90;;;;;;5032930;28;20168;-58
2023/12/24 04:21:10;;;;;;;1.50;1.40;;;6.40;99.90;;;;;;5037459;28;20183;-60
2023/12/24 04:23:36;;;;;;;1.13;1.10;;;6.40;99.90;;;;;;5031033;28;20198;-58
2023/12/24 04:26:01;;;;;;;1.20;1.10;;;6.40;99.90;;;;;;5032738;28;20184;-58
2023/12/24 04:28:27;;;;;;;1.30;1.20;;;6.40;99.90;;;;;;5032168;28;20559;-58
2023/12/24 04:30:52;;;;;;;1.20;1.10;;;6.40;99.90;;;;;;5034770;28;20695;-58
2023/12/24 04:33:18;;;;;;;2.40;1.07;;;6.40;99.90;;;;;;5036290;28;20234;-59
2023/12/24 04:35:45;;;;;;;0.90;0.90;;;6.40;99.90;;;;;;5034858;28;20179;-58
2023/12/24 04:38:11;;;;;;;1.37;1.27;;;6.40;99.90;;;;;;5038994;28;20191;-59
2023/12/24 04:40:37;;;;;;;1.17;1.07;;;6.30;99.90;;;;;;5038180;28;20803;-58
2023/12/24 04:43:02;;;;;;;1.20;1.00;;;6.30;99.90;;;;;;5024575;28;20967;-59
2023/12/24 04:45:28;;;;;;;1.40;1.30;;;6.30;99.90;;;;;;5034059;28;20202;-58
2023/12/24 04:47:58;;;;;;;1.83;1.23;;;6.30;99.90;;;;;;5026244;28;20200;-58
2023/12/24 04:50:24;;;;;;;0.93;0.93;;;6.30;99.90;;;;;;5031128;28;20191;-58
2023/12/24 04:52:49;;;;;;;2.33;1.10;;;6.30;99.90;;;;;;5036305;28;20941;-59
2023/12/24 04:55:15;;;;;;;1.20;1.10;;;6.40;99.90;;;;;;5035970;28;20669;-59
2023/12/24 04:57:41;;;;;;;4.60;1.20;;;6.30;99.90;;;;;;5036029;28;20202;-58
2023/12/24 05:00:07;;;;;;;1.57;1.30;;;6.40;99.90;;;;;;5046574;28;20186;-59
2023/12/24 05:02:33;;;;;;;1.90;1.40;;;6.40;99.90;;;;;;5032063;28;20183;-59
2023/12/24 05:05:03;;;;;;;1.20;1.10;;;6.30;99.90;;;;;;5029720;28;20437;-59
2023/12/24 05:07:29;;;;;;;0.90;0.90;;;6.40;99.90;;;;;;5038068;28;20235;-59
2023/12/24 05:09:54;;;;;;;1.00;1.00;;;6.40;99.90;;;;;;5033608;28;21271;-58
2023/12/24 05:12:20;;;;;;;1.10;1.10;;;6.40;99.90;;;;;;5036233;28;20465;-59
2023/12/24 05:14:45;;;;;;;1.10;1.00;;;6.40;99.90;;;;;;5027515;28;20227;-59
2023/12/24 05:17:11;;;;;;;2.10;1.07;;;6.40;99.90;;;;;;5028666;28;20203;-57
2023/12/24 05:19:37;;;;;;;0.90;0.90;;;6.40;99.90;;;;;;5034812;28;20620;-59
2023/12/24 05:22:02;;;;;;;0.97;0.87;;;6.40;99.90;;;;;;5034809;28;20661;-58
2023/12/24 05:24:28;;;;;;;1.60;1.40;;;6.40;99.90;;;;;;5038823;28;20237;-59
2023/12/24 05:26:54;;;;;;;0.90;0.90;;;6.40;99.90;;;;;;5035489;28;20199;-59
2023/12/24 05:29:20;;;;;;;1.10;1.00;;;6.40;99.90;;;;;;5040370;28;20179;-57
2023/12/24 05:31:45;;;;;;;1.87;1.00;;;6.40;99.90;;;;;;5032003;28;20466;-58
2023/12/24 05:34:11;;;;;;;1.00;1.00;;;6.40;99.90;;;;;;5028220;28;20241;-58
2023/12/24 05:36:38;;;;;;;1.00;0.90;;;6.40;99.90;;;;;;5028922;28;20679;-59
2023/12/24 05:39:05;;;;;;;1.30;1.20;;;6.40;99.90;;;;;;5028257;28;20179;-57
2023/12/24 05:41:31;;;;;;;1.63;1.10;;;6.40;99.90;;;;;;5031815;28;20433;-58
2023/12/24 05:43:57;;;;;;;1.00;1.00;;;6.40;99.90;;;;;;5032316;28;20441;-59
2023/12/24 05:46:23;;;;;;;1.23;1.00;;;6.40;99.90;;;;;;5039080;28;20210;-59
2023/12/24 05:48:49;;;;;;;1.20;1.10;;;6.40;99.90;;;;;;5028423;28;20180;-59
2023/12/24 05:51:14;;;;;;;1.00;1.00;;;6.40;99.90;;;;;;5029379;28;21003;-62
2023/12/24 05:53:40;;;;;;;1.20;1.00;;;6.40;99.90;;;;;;5028654;28;20445;-58
2023/12/24 05:56:06;;;;;;;1.37;1.27;;;6.40;99.90;;;;;;5029274;28;20176;-58
2023/12/24 05:58:32;;;;;;;1.13;1.00;;;6.40;99.90;;;;;;5030475;28;20187;-58
2023/12/24 06:00:57;;;;;;;1.23;1.10;;;6.40;99.90;;;;;;5026445;28;20184;-59
2023/12/24 06:03:24;;;;;;;1.10;1.00;;;6.40;99.90;;;;;;5027530;28;20183;-58
2023/12/24 06:05:49;;;;;;;1.00;1.00;;;6.40;99.90;;;;;;5029709;28;20203;-58
2023/12/24 06:08:18;;;;;;;1.10;1.00;;;6.40;99.90;;;;;;5032214;28;20519;-60
2023/12/24 06:10:45;;;;;;;0.80;0.80;;;6.40;99.90;;;;;;5033076;28;20686;-60
2023/12/24 06:13:11;;;;;;;1.00;1.00;;;6.40;99.90;;;;;;5029630;28;20518;-58
2023/12/24 06:15:37;;;;;;;0.90;0.90;;;6.40;99.90;;;;;;5038292;28;20979;-59
2023/12/24 06:18:04;;;;;;;0.87;0.80;;;6.40;99.90;;;;;;5036953;28;20476;-58
2023/12/24 06:20:31;;;;;;;0.97;0.90;;;6.40;99.90;;;;;;5032913;28;20403;-58
2023/12/24 06:23:00;;;;;;;1.00;1.00;;;6.40;99.90;;;;;;5038008;28;20472;-58
2023/12/24 06:25:26;;;;;;;1.27;1.00;;;6.40;99.90;;;;;;5032218;28;20442;-60
2023/12/24 06:27:52;;;;;;;1.03;0.77;;;6.40;99.90;;;;;;5037498;28;20952;-60
2023/12/24 06:30:18;;;;;;;0.83;0.83;;;6.40;99.90;;;;;;5039789;28;20685;-59
2023/12/24 06:32:45;;;;;;;0.70;0.70;;;6.40;99.90;;;;;;5035225;28;20207;-59
2023/12/24 06:35:10;;;;;;;0.80;0.80;;;6.40;99.90;;;;;;5031746;28;20440;-59
2023/12/24 06:37:36;;;;;;;0.80;0.80;;;6.40;99.90;;;;;;5034750;28;20437;-59
2023/12/24 06:40:03;;;;;;;1.13;0.80;;;6.40;99.90;;;;;;5032046;28;20183;-59
2023/12/24 06:42:29;;;;;;;0.83;0.83;;;6.40;99.90;;;;;;5031667;28;20728;-59
2023/12/24 06:44:54;;;;;;;0.70;0.70;;;6.40;99.90;;;;;;5030820;28;20509;-59
2023/12/24 06:47:20;;;;;;;0.80;0.80;;;6.40;99.90;;;;;;5035459;28;20740;-59
2023/12/24 06:49:46;;;;;;;0.73;0.73;;;6.40;99.90;;;;;;5035745;28;20184;-58
2023/12/24 06:52:11;;;;;;;0.80;0.80;;;6.40;99.90;;;;;;5037071;28;20192;-59
2023/12/24 06:54:37;;;;;;;1.33;0.83;;;6.50;99.90;;;;;;5035799;28;20278;-60
2023/12/24 06:57:04;;;;;;;0.90;0.90;;;6.40;99.90;;;;;;5031037;28;20241;-59
2023/12/24 06:59:30;;;;;;;0.90;0.80;;;6.40;99.90;;;;;;5033755;28;20179;-59
2023/12/24 07:01:55;;;;;;;0.80;0.80;;;6.40;99.90;;;;;;5032955;28;20505;-59
2023/12/24 07:04:21;;;;;;;1.10;1.00;;;6.50;99.90;;;;;;5026507;28;20277;-59
2023/12/24 07:06:47;;;;;;;0.80;0.80;;;6.50;99.90;;;;;;5031925;28;20712;-58
2023/12/24 07:09:12;;;;;;;0.80;0.80;;;6.50;99.90;;;;;;5033432;28;20183;-59
2023/12/24 07:11:38;;;;;;;1.67;0.80;;;6.50;99.90;;;;;;5039023;28;20206;-59
2023/12/24 07:14:03;;;;;;;0.87;0.87;;;6.60;99.90;;;;;;5034947;28;20258;-59
2023/12/24 07:16:29;;;;;;;1.87;1.00;;;6.60;99.90;;;;;;5026737;28;20187;-59
2023/12/24 07:18:55;;;;;;;1.47;1.00;;;6.60;99.90;;;;;;5030465;28;20183;-59
2023/12/24 07:21:20;;;;;;;3.60;1.13;;;6.60;99.90;;;;;;5031412;28;20176;-59
2023/12/24 07:23:46;;;;;;;3.27;1.37;;;6.60;99.90;;;;;;5035489;28;20541;-58
2023/12/24 07:26:12;;;;;;;1.03;0.80;;;6.60;99.90;;;;;;5034633;28;20176;-59
2023/12/24 07:28:38;;;;;;;0.73;0.73;;;6.60;99.90;;;;;;5030930;28;20190;-59
2023/12/24 07:31:04;;;;;;;0.80;0.80;;;6.60;99.90;;;;;;5033926;28;20665;-60
2023/12/24 07:33:29;;;;;;;0.63;0.63;;;6.60;99.90;;;;;;5039569;28;20170;-59
2023/12/24 07:35:55;;;;;;;0.80;0.80;;;6.60;99.90;;;;;;5032003;28;20414;-58
2023/12/24 07:38:21;;;;;;;1.20;1.10;;;6.60;99.90;;;;;;5033137;28;20222;-59
2023/12/24 07:40:46;;;;;;;1.63;1.10;;;6.70;99.90;;;;;;5030769;28;20174;-59
2023/12/24 07:43:12;;;;;;;1.07;0.97;;;6.70;99.90;;;;;;5039922;28;20553;-59
2023/12/24 07:45:37;;;;;;;1.30;1.10;;;6.70;99.90;;;;;;5025394;28;20221;-59
2023/12/24 07:48:04;;;;;;;0.90;0.90;;;6.70;99.90;;;;;;5032735;28;20401;-57
2023/12/24 07:50:29;;;;;;;0.80;0.80;;;6.70;99.90;;;;;;5024016;28;20190;-59
2023/12/24 07:52:55;;;;;;;1.00;0.90;;;6.70;99.90;;;;;;5028126;28;20450;-58
2023/12/24 07:55:20;;;;;;;1.50;0.90;;;6.70;99.90;;;;;;5029320;28;20532;-58
2023/12/24 07:57:46;;;;;;;1.10;1.00;;;6.70;99.90;;;;;;5036135;28;20188;-59
2023/12/24 08:00:13;;;;;;;1.40;1.00;;;6.70;99.90;;;;;;5038655;28;20243;-59
2023/12/24 08:02:39;;;;;;;0.87;0.87;;;6.70;99.90;;;;;;5033164;28;20737;-60
2023/12/24 08:05:05;;;;;;;0.80;0.80;;;6.70;99.90;;;;;;5036785;28;20414;-59
2023/12/24 08:07:31;;;;;;;0.90;0.90;;;6.70;99.90;;;;;;5042370;28;20468;-59
2023/12/24 08:09:57;;;;;;;1.90;1.60;;;6.70;99.90;;;;;;5033982;28;20439;-59
2023/12/24 08:12:23;;;;;;;1.30;1.20;;;6.70;99.90;;;;;;5043230;28;20981;-59
2023/12/24 08:14:48;;;;;;;0.90;0.90;;;6.70;99.90;;;;;;5033991;28;20172;-58
2023/12/24 08:17:14;;;;;;;1.20;1.10;;;6.70;99.90;;;;;;5035177;28;20223;-58
2023/12/24 08:19:39;;;;;;;1.03;1.03;;;6.70;99.90;;;;;;5037916;28;20183;-60
2023/12/24 08:22:05;;;;;;;1.30;1.20;;;6.80;99.90;;;;;;5040549;28;20182;-59
2023/12/24 08:24:31;;;;;;;1.57;1.07;;;6.80;99.90;;;;;;5035346;28;20179;-59
2023/12/24 08:26:57;;;;;;;1.20;1.17;;;6.80;99.90;;;;;;5026979;28;20192;-59
2023/12/24 08:29:22;;;;;;;1.23;1.10;;;6.80;99.90;;;;;;5029988;28;20723;-59
2023/12/24 08:31:48;;;;;;;1.70;1.13;;;6.80;99.90;;;;;;5036776;28;20199;-57
2023/12/24 08:34:13;;;;;;;1.03;1.03;;;6.80;99.90;;;;;;5032238;28;20801;-59
2023/12/24 08:36:39;;;;;;;4.00;1.33;;;6.80;99.90;;;;;;5028539;28;20342;-59
2023/12/24 08:39:05;;;;;;;1.37;1.10;;;6.80;99.90;;;;;;5026221;28;20176;-60
2023/12/24 08:41:30;;;;;;;1.83;1.60;;;6.80;99.90;;;;;;5024960;28;21518;-59
2023/12/24 08:43:56;;;;;;;1.67;1.30;;;6.80;99.90;;;;;;5024386;28;20188;-60
2023/12/24 08:46:21;;;;;;;1.20;1.10;;;6.80;99.90;;;;;;5023025;28;20594;-59
2023/12/24 08:48:47;;;;;;;1.97;1.83;;;6.80;99.90;;;;;;5020298;28;20179;-58
2023/12/24 08:51:12;;;;;;;1.50;1.20;;;6.80;99.90;;;;;;5027156;28;20187;-59
2023/12/24 08:53:39;;;;;;;1.20;1.10;;;6.80;99.90;;;;;;5029094;28;20597;-59
2023/12/24 08:56:05;;;;;;;1.30;1.20;;;6.90;99.90;;;;;;5031325;28;20514;-60
2023/12/24 08:58:31;;;;;;;2.33;1.53;;;6.90;99.90;;;;;;5030771;28;21325;-59
2023/12/24 09:00:56;;;;;;;1.73;1.30;;;6.90;99.90;;;;;;5027081;28;20431;-59
2023/12/24 09:03:22;;;;;;;1.50;1.40;;;7.00;99.90;;;;;;5028792;28;20624;-59
2023/12/24 09:05:48;;;;;;;2.00;1.80;;;7.00;99.90;;;;;;5022410;28;20183;-60
2023/12/24 09:08:13;;;;;;;1.87;1.63;;;7.00;99.90;;;;;;5024746;28;20219;-62
2023/12/24 09:10:41;;;;;;;1.43;1.33;;;7.00;99.90;;;;;;5028360;28;20172;-59
2023/12/24 09:13:06;;;;;;;1.83;1.73;;;7.00;99.90;;;;;;5021238;28;20615;-59
2023/12/24 09:15:32;;;;;;;1.87;1.73;;;7.00;99.90;;;;;;5033148;28;20429;-60
2023/12/24 09:17:58;;;;;;;1.40;1.30;;;6.90;99.90;;;;;;5034061;28;20226;-57
2023/12/24 09:20:23;;;;;;;1.37;1.27;;;6.90;99.90;;;;;;5039810;28;20241;-56
2023/12/24 09:22:49;;;;;;;1.53;1.30;;;6.90;99.90;;;;;;5032205;28;20662;-56
2023/12/24 09:25:14;;;;;;;3.50;1.97;;;6.90;99.90;;;;;;5025774;28;20175;-58
2023/12/24 09:27:40;;;;;;;2.77;2.00;;;6.90;99.90;;;;;;5037905;28;20739;-60
2023/12/24 09:30:06;;;;;;;2.40;2.20;;;6.90;99.90;;;;;;5031630;28;20179;-57
2023/12/24 09:32:32;;;;;;;1.43;1.33;;;6.90;99.90;;;;;;5026184;28;20261;-58
2023/12/24 09:34:58;;;;;;;1.47;1.20;;;6.90;99.90;;;;;;5032207;28;20442;-60
2023/12/24 09:37:25;;;;;;;1.77;1.43;;;7.00;99.90;;;;;;5029856;28;20697;-62
2023/12/24 09:39:52;;;;;;;2.67;1.33;;;7.00;99.90;;;;;;5027057;28;21015;-60
2023/12/24 09:42:18;;;;;;;1.93;1.40;;;7.00;99.90;;;;;;5022115;28;20434;-61
2023/12/24 09:44:44;;;;;;;1.53;1.43;;;7.00;99.90;;;;;;5022963;28;20446;-60
2023/12/24 09:47:10;;;;;;;1.53;1.20;;;7.00;99.90;;;;;;5035148;28;20523;-60
2023/12/24 09:49:36;;;;;;;1.63;1.53;;;7.00;99.90;;;;;;5030234;28;20847;-60
2023/12/24 09:52:02;;;;;;;1.30;1.20;;;7.00;99.90;;;;;;5037196;28;20200;-60
2023/12/24 09:54:28;;;;;;;2.60;1.30;;;7.00;99.90;;;;;;5029697;28;20206;-60
2023/12/24 09:56:55;;;;;;;1.97;1.73;;;7.00;99.90;;;;;;5034588;28;20933;-60
2023/12/24 09:59:21;;;;;;;4.20;1.47;;;7.00;99.90;;;;;;5035137;28;20180;-60
2023/12/24 10:01:46;;;;;;;2.43;1.90;;;7.00;99.90;;;;;;5033907;28;20557;-59
2023/12/24 10:04:13;;;;;;;1.50;1.40;;;7.00;99.90;;;;;;5033934;28;20182;-60
2023/12/24 10:06:55;;;;;;;1.60;1.43;;;7.00;99.90;;;;;;5036277;28;20198;-60
2023/12/24 10:09:23;;;;;;;1.40;1.30;;;7.00;99.90;;;;;;5040225;28;20434;-59
2023/12/24 10:12:05;;;;;;;1.90;1.60;;;7.10;99.90;;;;;;5030151;28;20658;-59
2023/12/24 10:14:31;;;;;;;3.20;1.40;;;7.10;99.90;;;;;;5034215;28;20442;-59
2023/12/24 10:16:59;;;;;;;2.20;1.30;;;7.10;99.90;;;;;;5034215;28;20453;-60
2023/12/24 10:19:27;;;;;;;1.40;1.30;;;7.10;99.90;;;;;;5043243;28;20432;-60
2023/12/24 10:22:04;;;;;;;2.13;1.20;;;7.10;99.90;;;;;;5034144;28;20438;-58
2023/12/24 10:24:30;;;;;;;1.30;1.20;;;7.20;99.90;;;;;;5035415;28;20437;-59
2023/12/24 10:27:10;;;;;;;1.67;1.33;;;7.20;99.90;;;;;;5037626;28;20472;-60
2023/12/24 10:29:38;;;;;;;5.43;2.20;;;7.20;99.90;;;;;;5029236;28;20453;-59
2023/12/24 10:32:04;;;;;;;2.10;1.70;;;7.20;99.90;;;;;;5030543;28;21100;-59
2023/12/24 10:34:30;;;;;;;1.37;1.27;;;7.20;99.90;;;;;;5037044;28;20478;-61
2023/12/24 10:36:58;;;;;;;5.87;3.07;;;7.20;99.90;;;;;;5041186;28;20524;-60
2023/12/24 10:39:24;;;;;;;1.30;1.20;;;7.20;99.90;;;;;;5034807;28;20993;-60
2023/12/24 10:41:56;;;;;;;1.33;1.23;;;7.20;99.90;;;;;;5026471;28;20438;-60
2023/12/24 10:44:23;;;;;;;1.60;1.50;;;7.20;99.90;;;;;;5041476;28;20661;-60
2023/12/24 10:46:49;;;;;;;1.40;1.30;;;7.20;99.90;;;;;;5028470;28;20571;-60
2023/12/24 10:49:14;;;;;;;3.23;1.10;;;7.20;99.90;;;;;;5032064;28;20468;-60
2023/12/24 10:51:40;;;;;;;1.33;1.23;;;7.20;99.90;;;;;;5036829;28;20221;-60
2023/12/24 10:54:09;;;;;;;1.60;1.50;;;7.20;99.90;;;;;;5034693;28;20214;-60
2023/12/24 10:56:57;;;;;;;1.10;1.07;;;7.20;99.90;;;;;;5034765;28;20212;-61
2023/12/24 11:00:04;;;;;;;1.23;1.13;;;7.20;99.90;;;;;;5017576;28;20559;-60
2023/12/24 11:02:30;;;;;;;1.20;1.10;;;7.20;99.90;;;;;;5022986;28;20481;-59
2023/12/24 11:04:57;;;;;;;1.20;1.10;;;7.30;99.90;;;;;;5030156;28;20548;-61
2023/12/24 11:07:35;;;;;;;1.30;1.20;;;7.30;99.90;;;;;;5032847;28;20492;-61
2023/12/24 11:10:01;;;;;;;1.30;1.20;;;7.30;99.90;;;;;;5034046;28;20978;-61
2023/12/24 11:12:34;;;;;;;1.13;1.10;;;7.30;99.90;;;;;;5032370;28;20465;-62
2023/12/24 11:15:01;;;;;;;2.20;1.00;;;7.40;99.90;;;;;;5033882;28;20438;-62
2023/12/24 11:17:36;;;;;;;1.47;1.37;;;7.40;99.90;;;;;;5034434;28;20446;-62
2023/12/24 11:20:24;;;;;;;2.50;1.33;;;7.40;99.90;;;;;;5028359;28;20476;-61
2023/12/24 11:23:04;;;;;;;1.70;1.20;;;7.50;99.90;;;;;;5026170;28;20834;-60
2023/12/24 11:25:36;;;;;;;1.00;1.00;;;7.50;99.90;;;;;;5031326;28;20930;-62
2023/12/24 11:28:03;;;;;;;3.03;1.77;;;7.50;99.90;;;;;;5034595;28;20523;-60
2023/12/24 11:30:28;;;;;;;1.57;1.47;;;7.50;99.90;;;;;;5035371;28;20429;-57
2023/12/24 11:32:54;;;;;;;1.27;1.17;;;7.50;99.90;;;;;;5043568;28;20525;-59
2023/12/24 11:35:51;;;;;;;1.80;1.43;;;7.50;99.90;;;;;;5034777;28;20686;-60
2023/12/24 11:38:35;;;;;;;1.50;1.40;;;7.50;99.90;;;;;;5021587;28;20200;-57
2023/12/24 11:41:07;;;;;;;2.17;1.43;;;7.50;99.90;;;;;;5024827;28;20461;-61
2023/12/24 11:43:34;;;;;;;1.30;1.20;;;7.40;99.90;;;;;;5025993;28;20524;-60
2023/12/24 11:45:59;;;;;;;2.97;1.50;;;7.40;99.90;;;;;;5023764;28;20437;-61
2023/12/24 11:48:27;;;;;;;5.63;3.40;;;7.40;99.90;;;;;;5026799;28;20498;-61
2023/12/24 11:51:09;;;;;;;2.20;2.10;;;7.40;99.90;;;;;;5019013;28;20683;-62
2023/12/24 11:53:42;;;;;;;1.63;1.53;;;7.30;99.90;;;;;;5025760;28;20933;-59
2023/12/24 11:56:15;;;;;;;1.50;1.40;;;7.30;99.90;;;;;;5025087;28;20430;-60
2023/12/24 11:58:50;;;;;;;2.37;1.30;;;7.30;99.90;;;;;;5019539;28;20493;-61
2023/12/24 12:01:24;;;;;;;1.50;1.40;;;7.30;99.90;;;;;;5024920;28;20428;-59
2023/12/24 12:03:58;;;;;;;1.50;1.40;;;7.30;99.90;;;;;;5024023;28;22179;-60
2023/12/24 12:06:31;;;;;;;1.83;1.60;;;7.30;99.90;;;;;;5020771;28;21103;-61
2023/12/24 12:09:09;;;;;;;1.23;1.20;;;7.20;99.90;;;;;;5029616;28;20509;-60
2023/12/24 12:11:35;;;;;;;1.90;1.70;;;7.20;99.90;;;;;;5034975;28;21215;-60
2023/12/24 12:14:01;;;;;;;1.57;1.47;;;7.20;99.90;;;;;;5031408;28;20492;-60
2023/12/24 12:16:27;;;;;;;1.50;1.40;;;7.20;99.90;;;;;;5032540;28;21023;-61
2023/12/24 12:18:53;;;;;;;1.97;1.70;;;7.20;99.90;;;;;;5029339;28;20176;-59
2023/12/24 12:21:19;;;;;;;2.40;1.60;;;7.20;99.90;;;;;;5035490;28;20422;-59
2023/12/24 12:23:44;;;;;;;2.13;1.57;;;7.10;99.90;;;;;;5035155;28;20654;-60
2023/12/24 12:26:10;;;;;;;1.50;1.40;;;7.20;99.90;;;;;;5029091;28;20484;-59
2023/12/24 12:28:36;;;;;;;6.47;3.00;;;7.20;99.90;;;;;;5030432;28;20172;-56
2023/12/24 12:31:03;;;;;;;13.10;4.47;;;7.20;99.90;;;;;;5024720;28;20176;-57
2023/12/24 12:33:28;;;;;;;4.23;2.73;;;7.20;99.90;;;;;;5029236;28;20469;-59
2023/12/24 12:35:55;;;;;;;3.47;2.50;;;7.30;99.90;;;;;;5035458;28;20425;-59
2023/12/24 12:38:22;;;;;;;2.03;1.80;;;7.30;99.90;;;;;;5026743;28;20192;-59
2023/12/24 12:40:49;;;;;;;1.60;1.50;;;7.40;99.90;;;;;;5028430;28;20493;-57
2023/12/24 12:43:16;;;;;;;3.10;1.90;;;7.40;99.90;;;;;;5028526;28;20961;-60
2023/12/24 12:45:41;;;;;;;1.23;1.13;;;7.40;99.90;;;;;;5030008;28;20975;-60
2023/12/24 12:48:08;;;;;;;2.63;1.60;;;7.40;99.90;;;;;;5026898;28;20449;-60
2023/12/24 12:50:33;;;;;;;2.60;1.50;;;7.40;99.90;;;;;;5019749;28;20270;-60
2023/12/24 12:52:59;;;;;;;1.77;1.50;;;7.40;99.90;;;;;;5024129;28;20467;-64
2023/12/24 12:55:25;;;;;;;2.27;1.83;;;7.40;99.90;;;;;;5024022;28;20180;-64